Terminal Aerodrome Forecast
Issued by NWS

Home | Current Version | Previous Version | Text Only | Print | Product List | Glossary On
Versions: 1 2 3 4 5 6 7 8 9 10 11 12 13 14 15 16 17 18 19 20 21 22 23 24
945
FTUS41 KCAR 091016 AAA
TAFHUL
TAF AMD
KHUL 091016Z 0910/1006 24006KT P6SM BKN035
      TEMPO 0910/0912 5SM -SN OVC028
     FM091500 29010KT P6SM BKN050
     FM100000 30011G22KT P6SM BKN060=

USA.gov is the U.S. government's official web portal to all federal, state and local government web resources and services.